createdAt,value
2023-01-28T00:01:31.045Z,43.80
2023-01-28T00:04:01.622Z,43.01
2023-01-28T00:06:32.171Z,43.64
2023-01-28T00:09:02.651Z,43.86
2023-01-28T00:11:33.829Z,43.59
2023-01-28T00:14:05.023Z,44.49
2023-01-28T00:16:35.925Z,44.55
2023-01-28T00:19:06.551Z,43.68
2023-01-28T00:21:38.250Z,44.06
2023-01-28T00:24:09.996Z,43.69
2023-01-28T00:26:40.500Z,43.79
2023-01-28T00:29:10.983Z,42.95
2023-01-28T00:31:41.447Z,43.01
2023-01-28T00:34:12.017Z,42.52
2023-01-28T00:36:42.565Z,43.16
2023-01-28T00:39:17.324Z,42.97
2023-01-28T00:41:47.790Z,43.11
2023-01-28T00:44:18.270Z,43.52
2023-01-28T00:46:48.837Z,43.81
2023-01-28T00:49:19.748Z,43.90
2023-01-28T00:51:50.187Z,43.15
2023-01-28T00:54:22.227Z,42.60
2023-01-28T00:56:53.873Z,43.29
2023-01-28T00:59:24.377Z,42.61
2023-01-28T01:01:57.740Z,42.70
2023-01-28T01:04:32.448Z,42.71
2023-01-28T01:07:04.119Z,42.47
2023-01-28T01:09:34.651Z,42.46
2023-01-28T01:12:05.386Z,42.96
2023-01-28T01:14:37.013Z,42.93
2023-01-28T01:17:08.005Z,42.70
2023-01-28T01:19:39.019Z,43.57
2023-01-28T01:22:09.449Z,42.96
2023-01-28T01:24:39.943Z,43.01
2023-01-28T01:27:10.421Z,41.80
2023-01-28T01:29:40.928Z,42.32
2023-01-28T01:32:12.613Z,42.54
2023-01-28T01:34:43.300Z,42.67
2023-01-28T01:37:13.748Z,42.62
2023-01-28T01:39:45.581Z,42.51
2023-01-28T01:42:16.823Z,42.77
2023-01-28T01:44:59.573Z,42.79
2023-01-28T01:47:33.104Z,42.69
2023-01-28T01:50:15.494Z,42.27
2023-01-28T01:52:49.549Z,42.78
2023-01-28T01:55:23.650Z,42.50
2023-01-28T01:57:57.807Z,42.60
2023-01-28T02:00:28.356Z,42.94
2023-01-28T02:02:59.179Z,42.75
2023-01-28T02:05:29.682Z,41.91
2023-01-28T02:08:02.932Z,42.74
2023-01-28T02:10:33.752Z,42.48
2023-01-28T02:13:04.318Z,42.35
2023-01-28T02:15:35.081Z,42.59
2023-01-28T02:18:07.267Z,42.93
2023-01-28T02:21:06.580Z,43.28
2023-01-28T02:23:48.656Z,42.69
2023-01-28T02:26:29.093Z,42.49
2023-01-28T02:29:14.166Z,42.89
2023-01-28T02:31:47.732Z,42.60
2023-01-28T02:34:49.000Z,42.89
2023-01-28T02:37:34.868Z,42.72
2023-01-28T02:40:14.082Z,42.93
2023-01-28T02:42:44.625Z,42.68
2023-01-28T02:45:28.464Z,42.77
2023-01-28T02:47:58.924Z,43.09
2023-01-28T02:50:34.951Z,42.63
2023-01-28T02:53:32.375Z,42.74
2023-01-28T02:56:20.757Z,43.06
2023-01-28T02:58:56.690Z,42.28
2023-01-28T03:01:35.809Z,42.66
2023-01-28T03:04:22.404Z,41.86
2023-01-28T03:06:55.890Z,42.21
2023-01-28T03:09:27.788Z,42.00
2023-01-28T03:12:22.179Z,41.83
2023-01-28T03:15:19.646Z,42.95
2023-01-28T03:18:13.530Z,42.82
2023-01-28T03:21:26.101Z,41.51
2023-01-28T03:24:20.253Z,42.05
2023-01-28T03:27:15.789Z,41.95
2023-01-28T03:30:05.309Z,42.27
2023-01-28T03:32:54.966Z,41.23
2023-01-28T03:35:45.971Z,41.33
2023-01-28T03:38:22.250Z,41.61
2023-01-28T03:41:00.455Z,41.92
2023-01-28T03:43:32.235Z,41.86
2023-01-28T03:46:03.057Z,41.82
2023-01-28T03:48:34.119Z,40.97
2023-01-28T03:51:04.807Z,40.88
2023-01-28T03:53:36.046Z,41.54
2023-01-28T03:56:06.715Z,42.04
2023-01-28T03:58:50.726Z,42.26
2023-01-28T04:01:21.781Z,42.37
2023-01-28T04:03:53.669Z,41.62
2023-01-28T04:06:24.231Z,41.75
2023-01-28T04:08:56.555Z,42.02
2023-01-28T04:11:28.457Z,41.48
2023-01-28T04:14:00.005Z,41.89
2023-01-28T04:16:30.588Z,41.19
2023-01-28T04:19:01.235Z,41.83
2023-01-28T04:21:32.826Z,41.90
2023-01-28T04:24:03.614Z,41.64
2023-01-28T04:26:34.253Z,41.50
2023-01-28T04:29:04.996Z,41.15
2023-01-28T04:31:36.110Z,41.54
2023-01-28T04:34:07.469Z,40.76
2023-01-28T04:36:38.018Z,40.99
2023-01-28T04:39:08.606Z,41.29
2023-01-28T04:41:39.273Z,42.08
2023-01-28T04:44:11.009Z,41.59
2023-01-28T04:46:41.551Z,40.84
2023-01-28T04:49:13.294Z,40.70
2023-01-28T04:51:43.808Z,40.75
2023-01-28T04:54:14.303Z,41.32
2023-01-28T04:56:44.754Z,41.22
2023-01-28T04:59:16.334Z,40.81
2023-01-28T05:01:46.869Z,40.39
2023-01-28T05:04:17.503Z,40.66
2023-01-28T05:06:47.950Z,40.40
2023-01-28T05:09:18.673Z,41.04
2023-01-28T05:11:50.210Z,41.04
2023-01-28T05:14:21.799Z,41.55
2023-01-28T05:16:52.635Z,41.10
2023-01-28T05:19:23.331Z,41.08
2023-01-28T05:21:54.074Z,40.63
2023-01-28T05:24:24.745Z,40.92
2023-01-28T05:26:55.209Z,40.78
2023-01-28T05:29:25.689Z,41.29
2023-01-28T05:31:56.149Z,41.47
2023-01-28T05:34:26.815Z,41.31
2023-01-28T05:36:58.387Z,41.00
2023-01-28T05:39:29.053Z,42.02
2023-01-28T05:41:59.540Z,41.71
2023-01-28T05:44:30.016Z,40.93
2023-01-28T05:47:00.460Z,40.98
2023-01-28T05:49:31.099Z,41.51
2023-01-28T05:52:02.351Z,41.26
2023-01-28T05:54:32.857Z,41.37
2023-01-28T05:57:04.482Z,41.14
2023-01-28T05:59:34.946Z,41.11
2023-01-28T06:02:05.912Z,41.40
2023-01-28T06:04:36.641Z,40.85
2023-01-28T06:07:07.143Z,41.38
2023-01-28T06:09:37.584Z,41.29
2023-01-28T06:12:08.267Z,41.53
2023-01-28T06:14:38.751Z,41.08
2023-01-28T06:17:09.580Z,41.36
2023-01-28T06:19:40.048Z,41.74
2023-01-28T06:22:10.821Z,41.76
2023-01-28T06:24:41.278Z,42.91
2023-01-28T06:27:11.852Z,41.77
2023-01-28T06:29:42.314Z,41.91
2023-01-28T06:32:12.865Z,41.96
2023-01-28T06:34:43.432Z,41.38
2023-01-28T06:37:17.034Z,41.37
2023-01-28T06:39:47.489Z,42.38
2023-01-28T06:42:17.955Z,42.23
2023-01-28T06:44:48.472Z,42.43
2023-01-28T06:47:18.931Z,42.82
2023-01-28T06:49:49.564Z,41.77
2023-01-28T06:52:20.476Z,42.32
2023-01-28T06:54:50.945Z,42.18
2023-01-28T06:57:21.594Z,42.57
2023-01-28T06:59:52.635Z,42.44
2023-01-28T07:02:23.125Z,41.50
2023-01-28T07:04:53.726Z,42.32
2023-01-28T07:07:24.207Z,42.47
2023-01-28T07:09:54.886Z,41.82
2023-01-28T07:12:25.419Z,41.97
2023-01-28T07:14:55.903Z,41.89
2023-01-28T07:17:26.451Z,41.78
2023-01-28T07:19:56.916Z,41.36
2023-01-28T07:22:27.347Z,42.29
2023-01-28T07:24:59.129Z,42.49
2023-01-28T07:27:29.554Z,42.08
2023-01-28T07:30:00.036Z,41.42
2023-01-28T07:32:30.459Z,41.13
2023-01-28T07:35:01.038Z,41.14
2023-01-28T07:37:32.735Z,41.66
2023-01-28T07:40:03.214Z,41.90
2023-01-28T07:42:33.775Z,41.89
2023-01-28T07:45:05.383Z,41.43
2023-01-28T07:47:35.871Z,40.93
2023-01-28T07:50:06.702Z,41.17
2023-01-28T07:52:40.125Z,41.26
2023-01-28T07:55:12.030Z,40.51
2023-01-28T07:57:59.824Z,40.91
2023-01-28T08:00:32.941Z,40.91
2023-01-28T08:03:08.760Z,41.02
2023-01-28T08:05:44.743Z,40.56
2023-01-28T08:08:16.051Z,40.39
2023-01-28T08:10:47.221Z,40.28
2023-01-28T08:13:18.692Z,40.59
2023-01-28T08:15:49.590Z,40.87
2023-01-28T08:18:20.131Z,40.51
2023-01-28T08:20:50.886Z,40.78
2023-01-28T08:23:23.280Z,39.91
2023-01-28T08:25:54.679Z,39.80
2023-01-28T08:28:25.200Z,40.33
2023-01-28T08:30:55.840Z,39.96
2023-01-28T08:33:26.442Z,39.88
2023-01-28T08:35:57.020Z,39.83
2023-01-28T08:38:27.440Z,40.97
2023-01-28T08:41:02.776Z,40.50
2023-01-28T08:43:32.988Z,40.26
2023-01-28T08:46:08.191Z,39.44
2023-01-28T08:48:39.898Z,39.30
2023-01-28T08:51:11.136Z,39.73
2023-01-28T08:53:41.575Z,39.80
2023-01-28T08:56:12.425Z,39.93
2023-01-28T08:58:42.915Z,40.71
2023-01-28T09:01:13.427Z,39.85
2023-01-28T09:03:43.953Z,40.09
2023-01-28T09:06:14.479Z,39.93
2023-01-28T09:08:44.944Z,39.77
2023-01-28T09:11:15.412Z,40.15
2023-01-28T09:13:45.856Z,39.74
2023-01-28T09:16:16.400Z,39.80
2023-01-28T09:18:48.580Z,40.04
2023-01-28T09:21:23.528Z,39.83
2023-01-28T09:24:01.040Z,39.82
2023-01-28T09:26:33.285Z,39.60
2023-01-28T09:29:03.765Z,39.60
2023-01-28T09:31:34.351Z,40.12
2023-01-28T09:34:04.887Z,39.11
2023-01-28T09:36:35.930Z,38.80
2023-01-28T09:39:08.649Z,38.49
2023-01-28T09:41:55.709Z,38.50
2023-01-28T09:44:35.053Z,38.43
2023-01-28T09:47:08.261Z,38.58
2023-01-28T09:49:47.804Z,38.43
2023-01-28T09:52:21.545Z,38.34
2023-01-28T09:54:59.080Z,38.50
2023-01-28T09:57:43.020Z,38.58
2023-01-28T10:00:20.678Z,38.97
2023-01-28T10:03:22.795Z,38.61
2023-01-28T10:06:03.602Z,39.23
2023-01-28T10:08:40.063Z,38.86
2023-01-28T10:11:19.379Z,39.35
2023-01-28T10:14:04.951Z,39.12
2023-01-28T10:16:44.134Z,38.60
2023-01-28T10:19:20.301Z,39.28
2023-01-28T10:21:59.898Z,39.20
2023-01-28T10:24:33.322Z,38.80
2023-01-28T10:27:04.631Z,39.04
2023-01-28T10:29:36.628Z,38.78
2023-01-28T10:32:18.499Z,38.84
2023-01-28T10:34:49.164Z,38.63
2023-01-28T10:37:20.037Z,38.47
2023-01-28T10:39:52.239Z,38.77
2023-01-28T10:42:28.445Z,38.49
2023-01-28T10:45:04.369Z,38.43
2023-01-28T10:47:46.825Z,39.00
2023-01-28T10:50:20.541Z,39.12
2023-01-28T10:52:59.227Z,38.87
2023-01-28T10:55:32.829Z,39.60
2023-01-28T10:58:05.975Z,38.82
2023-01-28T11:00:40.337Z,38.78
2023-01-28T11:03:19.538Z,39.16
2023-01-28T11:05:55.521Z,38.90
2023-01-28T11:08:28.696Z,38.67
2023-01-28T11:10:59.828Z,38.88
2023-01-28T11:13:31.726Z,38.77
2023-01-28T11:16:15.306Z,39.05
2023-01-28T11:19:06.881Z,39.01
2023-01-28T11:21:37.669Z,39.17
2023-01-28T11:24:17.064Z,39.20
2023-01-28T11:26:50.550Z,38.75
2023-01-28T11:29:36.747Z,39.20
2023-01-28T11:32:08.757Z,39.25
2023-01-28T11:34:42.215Z,39.09
2023-01-28T11:37:16.843Z,39.69
2023-01-28T11:39:47.292Z,39.01
2023-01-28T11:42:23.026Z,39.20
2023-01-28T11:44:53.487Z,38.69
2023-01-28T11:47:35.759Z,39.16
2023-01-28T11:50:21.273Z,39.10
2023-01-28T11:53:06.835Z,38.35
2023-01-28T11:55:49.976Z,39.05
2023-01-28T11:58:32.400Z,38.51
2023-01-28T12:01:13.145Z,38.44
2023-01-28T12:03:49.654Z,38.09
2023-01-28T12:06:46.929Z,37.53
2023-01-28T12:09:26.417Z,37.91
2023-01-28T12:12:14.432Z,37.39
2023-01-28T12:15:10.483Z,37.57
2023-01-28T12:18:15.859Z,37.12
2023-01-28T12:20:55.087Z,37.56
2023-01-28T12:23:57.606Z,37.11
2023-01-28T12:26:56.847Z,36.66
2023-01-28T12:29:30.226Z,36.86
2023-01-28T12:32:34.122Z,36.07
2023-01-28T12:35:13.130Z,36.68
2023-01-28T12:37:58.087Z,36.91
2023-01-28T12:40:50.965Z,37.02
2023-01-28T12:43:30.396Z,36.07
2023-01-28T12:46:03.799Z,36.38
2023-01-28T12:48:40.983Z,36.55
2023-01-28T12:51:23.400Z,36.04
2023-01-28T12:54:01.028Z,36.31
2023-01-28T12:56:34.397Z,36.88
2023-01-28T12:59:22.517Z,36.57
2023-01-28T13:01:55.926Z,36.40
2023-01-28T13:04:50.739Z,35.83
2023-01-28T13:07:32.459Z,35.60
2023-01-28T13:10:08.891Z,36.04
2023-01-28T13:12:42.199Z,35.89
2023-01-28T13:15:18.384Z,36.13
2023-01-28T13:18:01.673Z,36.32
2023-01-28T13:20:55.657Z,36.08
2023-01-28T13:23:28.195Z,36.23
2023-01-28T13:26:00.297Z,36.15
2023-01-28T13:28:33.661Z,37.04
2023-01-28T13:31:10.301Z,36.12
2023-01-28T13:33:42.973Z,36.13
2023-01-28T13:36:37.444Z,35.65
2023-01-28T13:39:25.428Z,35.15
2023-01-28T13:42:10.264Z,35.35
2023-01-28T13:44:40.865Z,34.91
2023-01-28T13:47:14.219Z,34.98
2023-01-28T13:49:47.686Z,35.48
2023-01-28T13:52:33.971Z,34.68
2023-01-28T13:55:26.050Z,34.68
2023-01-28T13:58:08.290Z,34.78
2023-01-28T14:00:50.545Z,34.50
2023-01-28T14:03:26.705Z,34.04
2023-01-28T14:06:21.639Z,34.46
2023-01-28T14:12:07.116Z,34.32
2023-01-28T14:14:58.795Z,34.10
2023-01-28T14:17:50.541Z,34.06
2023-01-28T14:20:30.050Z,34.39
2023-01-28T14:23:06.770Z,34.81
2023-01-28T14:25:43.858Z,34.99
2023-01-28T14:28:17.253Z,34.87
2023-01-28T14:30:52.008Z,34.01
2023-01-28T14:33:24.349Z,33.80
2023-01-28T14:35:56.641Z,34.98
2023-01-28T14:38:27.087Z,34.95
2023-01-28T14:40:57.657Z,34.67
2023-01-28T14:43:29.172Z,35.21
2023-01-28T14:46:14.461Z,35.61
2023-01-28T14:49:03.032Z,35.65
2023-01-28T14:51:51.369Z,35.31
2023-01-28T14:54:46.019Z,35.06
2023-01-28T14:57:41.829Z,35.26
2023-01-28T15:00:24.529Z,35.33
2023-01-28T15:02:55.328Z,35.32
2023-01-28T15:05:28.696Z,35.74
2023-01-28T15:07:59.370Z,35.36
2023-01-28T15:10:33.381Z,35.41
2023-01-28T15:13:12.837Z,34.88
2023-01-28T15:15:45.235Z,35.35
2023-01-28T15:18:20.179Z,35.08
2023-01-28T15:20:53.664Z,34.95
2023-01-28T15:23:30.006Z,34.54
2023-01-28T15:26:00.989Z,35.06
2023-01-28T15:28:34.266Z,34.85
2023-01-28T15:31:05.371Z,35.15
2023-01-28T15:33:35.996Z,34.62
2023-01-28T15:36:07.875Z,34.41
2023-01-28T15:38:39.523Z,34.67
2023-01-28T15:41:09.992Z,34.42
2023-01-28T15:43:41.668Z,34.56
2023-01-28T15:46:14.123Z,34.53
2023-01-28T15:48:47.888Z,34.37
2023-01-28T15:51:32.385Z,34.54
2023-01-28T15:54:08.632Z,34.93
2023-01-28T15:56:39.268Z,34.61
2023-01-28T15:59:28.867Z,34.24
2023-01-28T16:02:23.946Z,35.07
2023-01-28T16:05:03.359Z,34.17
2023-01-28T16:07:36.210Z,34.41
2023-01-28T16:10:08.043Z,34.10
2023-01-28T16:12:38.939Z,34.23
2023-01-28T16:15:12.625Z,35.19
2023-01-28T16:17:45.735Z,35.43
2023-01-28T16:20:25.808Z,35.68
2023-01-28T16:22:58.935Z,34.70
2023-01-28T16:25:32.530Z,36.00
2023-01-28T16:28:05.547Z,35.33
2023-01-28T16:30:36.178Z,35.28
2023-01-28T16:33:06.810Z,35.07
2023-01-28T16:36:01.319Z,34.98
2023-01-28T16:38:10.292Z,35.18
2023-01-28T16:40:40.878Z,35.37
2023-01-28T16:43:14.625Z,35.41
2023-01-28T16:45:46.373Z,35.61
2023-01-28T16:48:18.236Z,35.60
2023-01-28T16:50:48.884Z,36.38
2023-01-28T16:53:28.758Z,36.17
2023-01-28T16:55:59.726Z,35.58
2023-01-28T16:58:30.816Z,35.98
2023-01-28T17:01:01.933Z,35.77
2023-01-28T17:03:32.623Z,36.24
2023-01-28T17:06:03.201Z,36.53
2023-01-28T17:08:34.507Z,36.48
2023-01-28T17:11:05.360Z,36.67
2023-01-28T17:13:37.852Z,36.35
2023-01-28T17:16:10.670Z,36.67
2023-01-28T17:18:44.463Z,36.83
2023-01-28T17:21:19.808Z,36.90
2023-01-28T17:23:52.882Z,37.61
2023-01-28T17:26:25.626Z,37.24
2023-01-28T17:29:01.725Z,36.96
2023-01-28T17:31:36.993Z,36.85
2023-01-28T17:34:10.568Z,36.82
2023-01-28T17:36:41.487Z,36.22
2023-01-28T17:39:21.354Z,36.17
2023-01-28T17:41:57.107Z,36.07
2023-01-28T17:44:29.227Z,36.32
2023-01-28T17:47:02.948Z,36.02
2023-01-28T17:49:35.202Z,37.63
2023-01-28T17:52:11.985Z,36.57
2023-01-28T17:54:45.822Z,36.74
2023-01-28T17:57:18.514Z,38.19
2023-01-28T17:59:50.181Z,36.63
2023-01-28T18:02:25.006Z,36.78
2023-01-28T18:04:56.498Z,37.98
2023-01-28T18:07:28.686Z,37.52
2023-01-28T18:10:00.034Z,37.15
2023-01-28T18:12:32.184Z,38.07
2023-01-28T18:15:10.309Z,37.88
2023-01-28T18:17:50.269Z,38.48
2023-01-28T18:20:24.160Z,37.69
2023-01-28T18:22:58.126Z,39.78
2023-01-28T18:25:30.757Z,39.98
2023-01-28T18:28:03.866Z,39.17
2023-01-28T18:30:35.713Z,38.88
2023-01-28T18:33:07.566Z,39.13
2023-01-28T18:35:46.545Z,38.83
2023-01-28T18:38:22.044Z,39.24
2023-01-28T18:40:58.262Z,39.80
2023-01-28T18:43:31.366Z,39.31
2023-01-28T18:46:03.915Z,39.32
2023-01-28T18:48:35.687Z,39.84
2023-01-28T18:51:17.485Z,39.62
2023-01-28T18:53:43.276Z,38.85
2023-01-28T18:56:15.267Z,37.66
2023-01-28T18:58:46.267Z,38.25
2023-01-28T19:01:21.333Z,37.58
2023-01-28T19:03:57.370Z,38.28
2023-01-28T19:06:31.346Z,38.94
2023-01-28T19:09:07.624Z,39.12
2023-01-28T19:11:43.181Z,38.20
2023-01-28T19:14:16.532Z,38.87
2023-01-28T19:16:47.508Z,38.65
2023-01-28T19:19:20.260Z,39.60
2023-01-28T19:21:54.985Z,40.73
2023-01-28T19:24:27.662Z,39.37
2023-01-28T19:27:02.089Z,39.04
2023-01-28T19:29:35.471Z,39.48
2023-01-28T19:32:10.559Z,38.91
2023-01-28T19:34:44.288Z,38.41
2023-01-28T19:37:18.211Z,39.21
2023-01-28T19:39:50.683Z,39.10
2023-01-28T19:42:26.308Z,39.65
2023-01-28T19:45:01.931Z,39.70
2023-01-28T19:47:35.464Z,39.69
2023-01-28T19:50:11.035Z,39.81
2023-01-28T19:52:43.172Z,39.58
2023-01-28T19:55:15.830Z,39.89
2023-01-28T19:57:51.300Z,39.26
2023-01-28T20:00:23.426Z,40.81
2023-01-28T20:02:57.532Z,40.07
2023-01-28T20:05:29.933Z,38.77
2023-01-28T20:08:03.936Z,40.45
2023-01-28T20:10:40.824Z,39.79
2023-01-28T20:13:14.259Z,39.89
2023-01-28T20:15:48.249Z,39.42
2023-01-28T20:18:25.458Z,40.77
2023-01-28T20:20:58.335Z,42.02
2023-01-28T20:23:30.149Z,40.49
2023-01-28T20:26:02.875Z,40.42
2023-01-28T20:28:38.348Z,40.15
2023-01-28T20:31:13.906Z,40.75
2023-01-28T20:33:46.810Z,39.39
2023-01-28T20:36:21.948Z,41.01
2023-01-28T20:38:55.877Z,40.36
2023-01-28T20:41:29.633Z,40.80
2023-01-28T20:44:05.850Z,41.79
2023-01-28T20:46:37.933Z,41.37
2023-01-28T20:49:11.630Z,41.43
2023-01-28T20:51:47.653Z,41.38
2023-01-28T20:54:23.711Z,41.06
2023-01-28T20:56:58.094Z,41.66
2023-01-28T20:59:32.051Z,40.61
2023-01-28T21:02:08.725Z,40.37
2023-01-28T21:04:40.930Z,41.07
2023-01-28T21:07:17.157Z,40.15
2023-01-28T21:09:52.479Z,41.07
2023-01-28T21:12:25.592Z,40.20
2023-01-28T21:15:02.338Z,40.87
2023-01-28T21:17:39.201Z,41.74
2023-01-28T21:20:14.460Z,41.27
2023-01-28T21:22:57.474Z,41.17
2023-01-28T21:25:29.180Z,40.99
2023-01-28T21:28:02.556Z,39.95
2023-01-28T21:30:34.869Z,41.43
2023-01-28T21:33:11.215Z,41.06
2023-01-28T21:35:47.394Z,40.75
2023-01-28T21:38:22.519Z,42.17
2023-01-28T21:40:58.362Z,41.58
2023-01-28T21:43:34.174Z,40.93
2023-01-28T21:46:11.286Z,40.32
2023-01-28T21:48:45.386Z,39.86
2023-01-28T21:51:36.724Z,40.36
2023-01-28T21:54:14.326Z,40.70
2023-01-28T21:56:52.340Z,41.43
2023-01-28T21:59:31.491Z,42.45
2023-01-28T22:02:10.339Z,41.03
2023-01-28T22:04:54.080Z,41.65
2023-01-28T22:07:26.962Z,40.20
2023-01-28T22:09:57.689Z,40.98
2023-01-28T22:12:31.750Z,40.95
2023-01-28T22:15:05.147Z,41.55
2023-01-28T22:17:38.200Z,41.68
2023-01-28T22:20:10.863Z,40.96
2023-01-28T22:22:42.901Z,42.05
2023-01-28T22:25:19.422Z,41.50
2023-01-28T22:27:53.501Z,41.14
2023-01-28T22:30:24.538Z,42.76
2023-01-28T22:33:05.341Z,41.55
2023-01-28T22:35:41.426Z,42.45
2023-01-28T22:38:13.211Z,41.09
2023-01-28T22:40:46.303Z,41.28
2023-01-28T22:43:19.187Z,42.11
2023-01-28T22:45:59.055Z,41.90
2023-01-28T22:48:31.379Z,41.29
2023-01-28T22:51:10.675Z,40.59
2023-01-28T22:53:42.907Z,42.24
2023-01-28T22:56:14.466Z,41.29
2023-01-28T22:58:56.741Z,40.23
2023-01-28T23:01:29.758Z,40.21
2023-01-28T23:04:02.318Z,40.98
2023-01-28T23:06:34.830Z,40.61
2023-01-28T23:09:07.415Z,41.17
2023-01-28T23:11:38.961Z,41.16
2023-01-28T23:14:30.387Z,40.64
2023-01-28T23:17:20.937Z,41.60
2023-01-28T23:20:13.785Z,40.78
2023-01-28T23:23:04.605Z,41.36
2023-01-28T23:25:37.194Z,40.69
2023-01-28T23:28:10.531Z,42.16
2023-01-28T23:30:52.036Z,42.39
2023-01-28T23:33:31.045Z,42.11
2023-01-28T23:36:03.503Z,42.36
2023-01-28T23:38:35.481Z,42.94
2023-01-28T23:41:08.609Z,42.05
2023-01-28T23:43:39.511Z,41.38
2023-01-28T23:46:10.579Z,41.85
2023-01-28T23:48:41.255Z,42.85
2023-01-28T23:51:13.073Z,42.51
2023-01-28T23:53:44.824Z,42.31
2023-01-28T23:56:15.443Z,41.33
2023-01-28T23:58:45.969Z,44.50
